Gulf — V2BB5 — position and weather

sailwx.info

Track history (hours):
 
Tides and Currents Weather Stations Pressure Air Temp Water Temp Dewpoint Dewpoint Depression Visibility Wind Speed Wind Dir Waves Ship Positions

Gulf

Last reported at 2016-Jul-24 20:32 UTC. Time now 2016-Jul-25 22:06 UTC.
Position N 38°06' E 024°45'.

Length 96 m; draft 5.4 m.

Type: Cargo ship. MMSI: 304320000.

Date/timePositionNaut miles runAvg speedWind from/ knotsBaromVisibWave heightAir tempDewpointWater temp
2016-Jul-24 20:32N 38°06' E 024°45'6 6.0
2016-Jul-24 19:32N 38°01' E 024°41'6 5.8
2016-Jul-24 18:33N 37°56' E 024°38'6 6.1
2016-Jul-24 17:33N 37°51' E 024°32'  
2016-Jul-19 07:30N 43°55' E 013°47'26 8.7
2016-Jul-19 04:33N 44°10' E 013°17'9 8.8
2016-Jul-19 03:32N 44°15' E 013°07'9 8.5
2016-Jul-19 02:28N 44°20' E 012°57'8 8.7
2016-Jul-19 01:33N 44°24' E 012°47'9 9.0
2016-Jul-19 00:33N 44°29' E 012°37'9 8.7
2016-Jul-18 23:33N 44°30' E 012°25'7 6.9
2016-Jul-18 22:34N 44°28' E 012°15'0 0.0
2016-Jul-18 21:27N 44°28' E 012°15'0 0.0
2016-Jul-18 20:24N 44°28' E 012°15'0 0.0
2016-Jul-18 19:33N 44°28' E 012°15'0 0.0
2016-Jul-18 18:30N 44°28' E 012°15'0 0.0
2016-Jul-18 17:33N 44°28' E 012°15'0 0.0
2016-Jul-18 16:33N 44°28' E 012°15'0 0.0
2016-Jul-18 15:30N 44°28' E 012°15'0 0.0
2016-Jul-18 07:33N 44°28' E 012°15'0 0.0
2016-Jul-18 06:33N 44°28' E 012°15'9 3.9
2016-Jul-18 04:21N 44°31' E 012°27'0 0.1
2016-Jul-18 02:21N 44°31' E 012°27'0 0.0
2016-Jul-18 01:33N 44°31' E 012°27'0 0.0
2016-Jul-18 00:33N 44°31' E 012°27'0 0.0
2016-Jul-17 23:33N 44°31' E 012°27'0 0.0
2016-Jul-17 22:30N 44°31' E 012°27'0 0.0
2016-Jul-17 21:06N 44°31' E 012°27'0 0.0
2016-Jul-17 20:27N 44°31' E 012°27'0 0.0
2016-Jul-17 19:27N 44°31' E 012°27'0 0.0
2016-Jul-17 18:33N 44°31' E 012°27'0 0.0
2016-Jul-17 14:33N 44°31' E 012°27'0 0.0
2016-Jul-17 07:24N 44°31' E 012°27'0 0.0
2016-Jul-17 06:33N 44°31' E 012°27'0 0.0
2016-Jul-17 04:33N 44°31' E 012°27'0 0.0
2016-Jul-17 03:33N 44°31' E 012°27'  
Track history (hours):
 
Tides and Currents Weather Stations Pressure Air Temp Water Temp Dewpoint Dewpoint Depression Visibility Wind Speed Wind Dir Waves Ship Positions

Gulf

Last reported at 2016-Jul-24 20:32 UTC. Time now 2016-Jul-25 22:06 UTC.
Position N 38°06' E 024°45'.

Length 96 m; draft 5.4 m.

Type: Cargo ship. MMSI: 304320000.

Date/timePositionNaut miles runAvg speedWind from/ knotsBaromVisibWave heightAir tempDewpointWater temp
2016-Jul-24 20:32N 38°06' E 024°45'6 6.0
2016-Jul-24 19:32N 38°01' E 024°41'6 5.8
2016-Jul-24 18:33N 37°56' E 024°38'6 6.1
2016-Jul-24 17:33N 37°51' E 024°32'  
2016-Jul-19 07:30N 43°55' E 013°47'26 8.7
2016-Jul-19 04:33N 44°10' E 013°17'9 8.8
2016-Jul-19 03:32N 44°15' E 013°07'9 8.5
2016-Jul-19 02:28N 44°20' E 012°57'8 8.7
2016-Jul-19 01:33N 44°24' E 012°47'9 9.0
2016-Jul-19 00:33N 44°29' E 012°37'9 8.7
2016-Jul-18 23:33N 44°30' E 012°25'7 6.9
2016-Jul-18 22:34N 44°28' E 012°15'0 0.0
2016-Jul-18 21:27N 44°28' E 012°15'0 0.0
2016-Jul-18 20:24N 44°28' E 012°15'0 0.0
2016-Jul-18 19:33N 44°28' E 012°15'0 0.0
2016-Jul-18 18:30N 44°28' E 012°15'0 0.0
2016-Jul-18 17:33N 44°28' E 012°15'0 0.0
2016-Jul-18 16:33N 44°28' E 012°15'0 0.0
2016-Jul-18 15:30N 44°28' E 012°15'0 0.0
2016-Jul-18 07:33N 44°28' E 012°15'0 0.0
2016-Jul-18 06:33N 44°28' E 012°15'9 3.9
2016-Jul-18 04:21N 44°31' E 012°27'0 0.1
2016-Jul-18 02:21N 44°31' E 012°27'0 0.0
2016-Jul-18 01:33N 44°31' E 012°27'0 0.0
2016-Jul-18 00:33N 44°31' E 012°27'0 0.0
2016-Jul-17 23:33N 44°31' E 012°27'0 0.0
2016-Jul-17 22:30N 44°31' E 012°27'0 0.0
2016-Jul-17 21:06N 44°31' E 012°27'0 0.0
2016-Jul-17 20:27N 44°31' E 012°27'0 0.0
2016-Jul-17 19:27N 44°31' E 012°27'0 0.0
2016-Jul-17 18:33N 44°31' E 012°27'0 0.0
2016-Jul-17 14:33N 44°31' E 012°27'0 0.0
2016-Jul-17 07:24N 44°31' E 012°27'0 0.0
2016-Jul-17 06:33N 44°31' E 012°27'0 0.0
2016-Jul-17 04:33N 44°31' E 012°27'0 0.0
2016-Jul-17 03:33N 44°31' E 012°27'  

Dump ship's entire track history